CheckWX is a tool to help pilots better visualize weather data.  It is not intended as a substitute for an official pre-flight weather briefing.

02:12:25 UTC

KTIX METAR
Space Coast Regional Airport
Titusville, Florida, USA
Current

25 mins ago

KTIX 180147Z 16005KT 7SM BKN050 24/21 A3001
Observed
Feb-18 @ 01:47 UTC
Wind
  • 160° at 5 KTS
Visibility
7 SM
Flight Rules
VFR
Cloud Levels
  • Broken at 5,000' AGL
Temperature
24°C / 75°F
Dewpoint
21°C / 70°F
Humidity
83%
Altimeter
30.01" Hg
Pressure
1016.22 hPa
Previous

1 hour ago

KTIX 180047Z 15007KT 7SM SCT060 24/20 A2999
Observed
Feb-18 @ 00:47 UTC
Wind
  • 150° at 7 KTS
Visibility
7 SM
Flight Rules
VFR
Cloud Levels
  • Scattered at 6,000' AGL
Temperature
24°C / 75°F
Dewpoint
20°C / 68°F
Humidity
78%
Altimeter
29.99" Hg
Pressure
1015.62 hPa
Previous

2 hours ago

KTIX 172347Z 15010KT 7SM SCT060 25/19 A2998
Observed
Feb-17 @ 23:47 UTC
Wind
  • 150° at 10 KTS
Visibility
7 SM
Flight Rules
VFR
Cloud Levels
  • Scattered at 6,000' AGL
Temperature
25°C / 77°F
Dewpoint
19°C / 66°F
Humidity
69%
Altimeter
29.98" Hg
Pressure
1015.22 hPa